This is the latest recevied weather packets stored in our database for station/object OE5ERN-10. If no packets are shown the sender has not sent any weather packets the latest 10 day(s).
| Time | Temp. | Humidity | Pressure | Rain* | Wind** | Luminosity | Snow |
|---|---|---|---|---|---|---|---|
| 1777024555 | 26.11° C | 24% | 1023 hPa | 0 mm | - | - | - |
| 1777023655 | 28.89° C | 22% | 1023.1 hPa | 0 mm | - | - | - |
| 1777022755 | 29.44° C | 23% | 1023.3 hPa | 0 mm | - | - | - |
| 1777021855 | 28.89° C | 23% | 1023.5 hPa | 0 mm | - | - | - |
| 1777020955 | 28.33° C | 23% | 1023.6 hPa | 0 mm | - | - | - |
| 1777020056 | 29.44° C | 22% | 1023.7 hPa | 0 mm | - | - | - |
| 1777019156 | 27.78° C | 24% | 1023.7 hPa | 0 mm | - | - | - |
| 1777018256 | 26.67° C | 24% | 1023.9 hPa | 0 mm | - | - | - |
| 1777017356 | 28.33° C | 22% | 1023.8 hPa | 0 mm | - | - | - |
| 1777016456 | 30° C | 21% | 1023.8 hPa | 0 mm | - | - | - |
| 1777015556 | 28.33° C | 23% | 1023.9 hPa | 0 mm | - | - | - |
| 1777014656 | 27.78° C | 24% | 1023.9 hPa | 0 mm | - | - | - |
| 1777013756 | 26.67° C | 28% | 1023.9 hPa | 0 mm | - | - | - |
| 1777012856 | 24.44° C | 30% | 1024.3 hPa | 0 mm | - | - | - |
| 1777011956 | 25.56° C | 30% | 1024.3 hPa | 0 mm | - | - | - |
| 1777011056 | 23.89° C | 34% | 1024.4 hPa | 0 mm | - | - | - |
| 1777010156 | 21.11° C | 40% | 1024.4 hPa | 0 mm | - | - | - |
| 1777009256 | 15.56° C | 57% | 1024.3 hPa | 0 mm | - | - | - |
| 1777008356 | 4.44° C | 81% | 1024.4 hPa | 0 mm | - | - | - |
| 1777007456 | 2.22° C | 81% | 1024.6 hPa | 0 mm | - | - | - |
| 1777006556 | 1.67° C | 82% | 1024.5 hPa | 0 mm | - | - | - |
| 1777005656 | 0.56° C | 82% | 1024.5 hPa | 0 mm | - | - | - |
| 1777004756 | 0° C | 81% | 1024.5 hPa | 0 mm | - | - | - |
| 1777003856 | 0° C | 81% | 1024.6 hPa | 0 mm | - | - | - |
| 1777002956 | 0° C | 80% | 1024.5 hPa | 0 mm | - | - | - |
* Rain latest hour (hover to see other rain measurements)
** Current wind speed in m/s (hover to see current wind gust speed)